Norris Observed Data For Previous 48 Hours

Caption
Day and Hour Reservoir Elevation (behind dam)* Tailwater Elevation (below dam)* Average Hourly Discharge*
11/16/2017 2 AM EST 1,002.87 821.35 20
11/16/2017 3 AM EST 1,002.89 821.22 20
11/16/2017 4 AM EST 1,002.89 821.11 20
11/16/2017 5 AM EST 1,002.88 821.01 20
11/16/2017 6 AM EST 1,002.89 820.95 20
11/16/2017 7 AM EST 1,002.86 821.95 94
11/16/2017 8 AM EST 1,002.86 824.58 3,464
11/16/2017 9 AM EST 1,002.87 824.83 3,445
11/16/2017 10 AM EST 1,002.87 824.89 3,437
11/16/2017 11 AM EST 1,002.89 822.28 166
11/16/2017 12 PM EST 1,002.88 821.83 20
11/16/2017 1 PM EST 1,002.87 821.63 20
11/16/2017 2 PM EST 1,002.88 821.48 20
11/16/2017 3 PM EST 1,002.88 821.34 20
11/16/2017 4 PM EST 1,002.89 821.21 20
11/16/2017 5 PM EST 1,002.89 821.10 20
11/16/2017 6 PM EST 1,002.89 821.01 20
11/16/2017 7 PM EST 1,002.87 822.07 102
11/16/2017 8 PM EST 1,002.88 824.64 3,462
11/16/2017 9 PM EST 1,002.87 824.92 3,448
11/16/2017 10 PM EST 1,002.87 824.90 3,443
11/16/2017 11 PM EST 1,002.86 824.85 3,447
11/17/2017 12 AM EST 1,002.89 822.29 166
11/17/2017 1 AM EST 1,002.87 821.84 20
11/17/2017 2 AM EST 1,002.87 821.64 20
11/17/2017 3 AM EST 1,002.89 821.49 20
11/17/2017 4 AM EST 1,002.89 821.35 20
11/17/2017 5 AM EST 1,002.89 821.22 20
11/17/2017 6 AM EST 1,002.86 822.90 208
11/17/2017 7 AM EST 1,002.88 824.69 3,458
11/17/2017 8 AM EST 1,002.87 824.87 3,447
11/17/2017 9 AM EST - 999.00 - 999.00 2,979
11/17/2017 10 AM EST 1,002.88 823.36 2,511
11/17/2017 11 AM EST 1,002.87 822.08 20
11/17/2017 12 PM EST 1,002.86 821.76 20
11/17/2017 1 PM EST 1,002.87 821.59 20
11/17/2017 2 PM EST 1,002.87 821.45 20
11/17/2017 3 PM EST 1,002.87 821.31 20
11/17/2017 4 PM EST 1,002.87 821.18 20
11/17/2017 5 PM EST 1,002.87 821.08 20
11/17/2017 6 PM EST 1,002.85 821.97 97
11/17/2017 7 PM EST 1,002.85 824.66 3,462
11/17/2017 8 PM EST 1,002.85 824.89 3,451
11/17/2017 9 PM EST 1,002.85 824.89 3,443
11/17/2017 10 PM EST 1,002.87 822.29 161
11/17/2017 11 PM EST 1,002.86 821.84 20
11/18/2017 12 AM EST 1,002.86 821.65 20
11/18/2017 1 AM EST 1,002.87 821.50 20
11/18/2017 2 AM EST 1,002.86 821.35 20
11/18/2017 3 AM EST 1,002.87 821.23 20
11/18/2017 4 AM EST 1,002.89 821.11 20
11/18/2017 5 AM EST 1,002.86 821.01 20
11/18/2017 6 AM EST 1,002.85 820.95 20
11/18/2017 7 AM EST 1,002.83 820.90 20
11/18/2017 8 AM EST 1,002.83 821.96 99
11/18/2017 9 AM EST 1,002.84 824.55 3,439
11/18/2017 10 AM EST 1,002.84 824.89 3,444

Elevations are in feet above sea level. Discharges are in cubic feet per second and are reported at the end of the hour.